createdAt,value
2024-02-29T00:08:54.809Z,622.00
2024-02-29T00:09:24.975Z,629.00
2024-02-29T00:10:24.972Z,699.00
2024-02-29T00:11:24.985Z,833.00
2024-02-29T00:12:25.001Z,939.00
2024-02-29T00:13:24.967Z,1033.00
2024-02-29T00:14:24.983Z,1018.00
2024-02-29T00:15:24.976Z,926.00
2024-02-29T00:16:24.978Z,841.00
2024-02-29T00:17:25.003Z,751.00
2024-02-29T00:18:24.995Z,709.00
2024-02-29T00:19:24.992Z,679.00
2024-02-29T00:20:24.980Z,657.00
2024-02-29T00:21:24.975Z,643.00
2024-02-29T00:22:25.038Z,637.00
2024-02-29T00:23:25.020Z,629.00
2024-02-29T00:24:25.002Z,630.00
2024-02-29T00:25:24.996Z,624.00
2024-02-29T00:29:03.687Z,619.00
2024-02-29T00:29:33.694Z,623.00
2024-02-29T00:30:33.727Z,644.00
2024-02-29T00:31:33.684Z,658.00
2024-02-29T00:32:33.705Z,660.00
2024-02-29T00:33:33.762Z,660.00
2024-02-29T00:34:33.710Z,630.00
2024-02-29T00:35:33.702Z,600.00
2024-02-29T00:36:33.702Z,600.00
2024-02-29T00:37:33.720Z,598.00
2024-02-29T00:39:06.237Z,600.00
2024-02-29T00:39:34.747Z,600.00
2024-02-29T00:40:33.704Z,606.00
2024-02-29T00:41:33.709Z,613.00
2024-02-29T00:42:33.735Z,620.00
2024-02-29T00:48:18.097Z,600.00
2024-02-29T00:48:51.121Z,607.00
2024-02-29T00:49:51.078Z,643.00
2024-02-29T00:50:51.091Z,693.00
2024-02-29T00:51:51.148Z,756.00
2024-02-29T00:52:51.101Z,785.00
2024-02-29T00:53:51.104Z,764.00
2024-02-29T00:54:51.158Z,701.00
2024-02-29T00:55:51.088Z,658.00
2024-02-29T00:56:51.101Z,636.00
2024-02-29T00:57:51.139Z,629.00
2024-02-29T00:58:51.114Z,629.00
2024-02-29T00:59:51.098Z,623.00
2024-02-29T01:00:51.189Z,624.00
2024-02-29T01:01:51.260Z,623.00
2024-02-29T01:02:51.146Z,614.00
2024-02-29T01:03:51.218Z,611.00
2024-02-29T01:04:51.121Z,609.00
2024-02-29T01:05:51.110Z,614.00
2024-02-29T01:07:18.150Z,628.00
2024-02-29T01:07:51.123Z,629.00
2024-02-29T01:08:51.163Z,634.00
2024-02-29T01:09:51.181Z,638.00
2024-02-29T01:11:18.212Z,644.00
2024-02-29T01:11:51.137Z,629.00
2024-02-29T01:12:51.156Z,635.00
2024-02-29T01:13:51.123Z,641.00
2024-02-29T01:14:51.166Z,642.00
2024-02-29T01:15:51.135Z,643.00
2024-02-29T01:16:51.132Z,641.00
2024-02-29T01:17:51.787Z,636.00
2024-02-29T01:23:38.546Z,635.00
2024-02-29T01:24:08.542Z,641.00
2024-02-29T01:25:08.550Z,690.00
2024-02-29T01:26:08.533Z,775.00
2024-02-29T01:27:08.563Z,832.00
2024-02-29T01:28:08.607Z,834.00
2024-02-29T01:29:08.523Z,767.00
2024-02-29T01:30:08.560Z,696.00
2024-02-29T01:31:08.553Z,655.00
2024-02-29T01:32:15.862Z,633.00
2024-02-29T01:34:58.051Z,633.00
2024-02-29T01:35:08.550Z,633.00
2024-02-29T01:36:09.191Z,643.00
2024-02-29T01:42:59.896Z,633.00
2024-02-29T01:43:30.537Z,641.00
2024-02-29T01:44:30.617Z,715.00
2024-02-29T01:48:06.319Z,633.00
2024-02-29T01:48:39.274Z,640.00
2024-02-29T01:50:03.757Z,690.00
2024-02-29T01:50:39.269Z,638.00
2024-02-29T01:51:39.288Z,663.00
2024-02-29T01:58:30.511Z,633.00
2024-02-29T01:59:01.155Z,642.00
2024-02-29T02:00:01.194Z,722.00
2024-02-29T02:01:01.307Z,848.00
2024-02-29T02:02:01.329Z,959.00
2024-02-29T02:03:01.274Z,1049.00
2024-02-29T02:04:06.381Z,1041.00
2024-02-29T02:05:01.322Z,965.00
2024-02-29T02:06:01.345Z,868.00
2024-02-29T02:07:01.374Z,802.00
2024-02-29T02:08:01.324Z,768.00
2024-02-29T02:09:32.709Z,754.00
2024-02-29T02:10:01.410Z,1027.00
2024-02-29T02:11:01.406Z,900.00
2024-02-29T02:12:01.345Z,790.00
2024-02-29T02:13:01.411Z,759.00
2024-02-29T02:14:01.355Z,725.00
2024-02-29T02:15:01.346Z,674.00
2024-02-29T02:16:01.481Z,662.00
2024-02-29T02:17:01.358Z,657.00
2024-02-29T02:18:01.407Z,651.00
2024-02-29T02:19:01.395Z,650.00
2024-02-29T02:20:01.552Z,651.00
2024-02-29T02:21:01.366Z,648.00
2024-02-29T02:22:01.366Z,646.00
2024-02-29T02:23:01.348Z,646.00
2024-02-29T02:24:06.384Z,642.00
2024-02-29T02:25:01.405Z,642.00
2024-02-29T02:26:01.357Z,643.00
2024-02-29T02:27:01.376Z,644.00
2024-02-29T02:28:01.375Z,645.00
2024-02-29T02:29:06.376Z,646.00
2024-02-29T02:30:01.357Z,642.00
2024-02-29T02:36:50.183Z,642.00
2024-02-29T02:37:23.104Z,650.00
2024-02-29T02:38:23.115Z,729.00
2024-02-29T02:39:23.744Z,838.00
2024-02-29T02:40:23.113Z,932.00
2024-02-29T02:41:23.105Z,1002.00
2024-02-29T02:42:23.121Z,967.00
2024-02-29T02:43:23.101Z,879.00
2024-02-29T02:44:28.894Z,814.00
2024-02-29T02:45:23.104Z,814.00
2024-02-29T02:46:23.114Z,782.00
2024-02-29T02:47:23.146Z,759.00
2024-02-29T02:48:23.120Z,739.00
2024-02-29T02:49:23.113Z,732.00
2024-02-29T02:50:23.200Z,707.00
2024-02-29T02:51:23.120Z,688.00
2024-02-29T02:52:23.163Z,694.00
2024-02-29T02:53:23.116Z,687.00
2024-02-29T02:59:07.534Z,669.00
2024-02-29T02:59:40.611Z,687.00
2024-02-29T03:00:40.657Z,775.00
2024-02-29T03:01:40.818Z,860.00
2024-02-29T03:02:40.588Z,930.00
2024-02-29T03:03:40.543Z,978.00
2024-02-29T03:05:07.857Z,949.00
2024-02-29T03:05:40.510Z,951.00
2024-02-29T03:07:07.691Z,956.00
2024-02-29T03:07:40.618Z,952.00
2024-02-29T03:08:40.515Z,958.00
2024-02-29T03:17:41.996Z,949.00
2024-02-29T03:18:10.978Z,968.00
2024-02-29T03:19:10.981Z,1087.00
2024-02-29T03:20:10.957Z,1198.00
2024-02-29T03:21:10.982Z,1285.00
2024-02-29T03:22:11.055Z,1342.00
2024-02-29T03:23:10.956Z,1311.00
2024-02-29T03:24:10.972Z,1205.00
2024-02-29T03:25:11.063Z,1137.00
2024-02-29T03:26:10.988Z,1076.00
2024-02-29T03:27:11.058Z,1040.00
2024-02-29T03:28:10.969Z,1007.00
2024-02-29T03:29:10.962Z,975.00
2024-02-29T03:30:10.962Z,926.00
2024-02-29T03:31:11.060Z,916.00
2024-02-29T03:32:10.991Z,890.00
2024-02-29T03:33:11.038Z,886.00
2024-02-29T03:34:10.982Z,865.00
2024-02-29T03:50:39.025Z,852.00
2024-02-29T03:51:11.878Z,888.00
2024-02-29T04:30:11.028Z,852.00
2024-02-29T04:30:44.093Z,903.00
2024-02-29T04:31:43.992Z,1172.00
2024-02-29T04:32:44.010Z,1496.00
2024-02-29T04:33:44.027Z,1843.00
2024-02-29T04:49:12.632Z,852.00
2024-02-29T04:49:40.507Z,885.00
2024-02-29T04:50:40.517Z,1091.00
2024-02-29T04:51:40.548Z,1352.00
2024-02-29T04:52:40.592Z,1609.00
2024-02-29T04:53:40.545Z,1838.00
2024-02-29T04:54:40.546Z,1865.00
2024-02-29T04:55:40.524Z,1687.00
2024-02-29T04:56:40.513Z,1559.00
2024-02-29T04:57:40.661Z,1446.00
2024-02-29T04:58:40.671Z,1373.00
2024-02-29T04:59:40.675Z,1305.00
2024-02-29T05:00:40.793Z,1245.00
2024-02-29T05:01:40.936Z,1192.00
2024-02-29T05:02:40.763Z,1150.00
2024-02-29T05:03:40.954Z,1115.00
2024-02-29T05:04:40.972Z,1075.00
2024-02-29T05:05:40.893Z,1043.00
2024-02-29T05:06:40.927Z,1025.00
2024-02-29T05:07:40.958Z,1023.00
2024-02-29T05:08:41.014Z,1018.00
2024-02-29T05:13:23.575Z,1006.00
2024-02-29T05:13:54.247Z,1021.00
2024-02-29T05:14:54.232Z,1086.00
2024-02-29T05:15:54.317Z,1141.00
2024-02-29T05:20:37.194Z,1006.00
2024-02-29T05:21:07.385Z,1019.00
2024-02-29T05:22:07.449Z,1091.00
2024-02-29T05:23:07.373Z,1149.00
2024-02-29T05:24:07.374Z,1172.00
2024-02-29T05:25:07.415Z,1151.00
2024-02-29T05:26:07.375Z,1088.00
2024-02-29T05:27:07.381Z,1023.00
2024-02-29T05:28:07.452Z,983.00
2024-02-29T05:29:07.434Z,959.00
2024-02-29T05:30:07.386Z,932.00
2024-02-29T05:31:07.399Z,914.00
2024-02-29T05:32:07.386Z,892.00
2024-02-29T05:33:07.477Z,888.00
2024-02-29T05:34:07.400Z,875.00
2024-02-29T05:35:07.399Z,852.00
2024-02-29T05:36:07.400Z,846.00
2024-02-29T05:37:07.414Z,816.00
2024-02-29T05:38:07.395Z,794.00
2024-02-29T05:54:38.603Z,774.00
2024-02-29T05:55:08.315Z,804.00
2024-02-29T05:56:08.260Z,983.00
2024-02-29T05:57:08.270Z,1190.00
2024-02-29T05:58:08.314Z,1365.00
2024-02-29T05:59:08.276Z,1526.00
2024-02-29T06:00:08.265Z,1530.00
2024-02-29T06:01:08.366Z,1375.00
2024-02-29T06:02:08.338Z,1267.00
2024-02-29T06:03:08.271Z,1186.00
2024-02-29T06:04:08.336Z,1122.00
2024-02-29T06:05:08.284Z,1065.00
2024-02-29T06:06:08.284Z,1031.00
2024-02-29T06:07:08.303Z,1006.00
2024-02-29T06:08:08.341Z,978.00
2024-02-29T06:09:08.284Z,974.00
2024-02-29T06:10:08.412Z,953.00
2024-02-29T06:11:08.300Z,940.00
2024-02-29T06:12:08.276Z,922.00
2024-02-29T06:13:08.285Z,902.00
2024-02-29T06:14:08.283Z,891.00
2024-02-29T06:15:11.086Z,878.00
2024-02-29T06:16:08.350Z,878.00
2024-02-29T06:17:08.303Z,871.00
2024-02-29T06:18:08.405Z,843.00
2024-02-29T06:19:08.381Z,829.00
2024-02-29T06:20:08.296Z,800.00
2024-02-29T06:21:08.305Z,771.00
2024-02-29T06:22:08.370Z,752.00
2024-02-29T06:40:50.907Z,757.00
2024-02-29T06:41:17.865Z,783.00
2024-02-29T06:42:17.837Z,967.00
2024-02-29T06:43:17.966Z,1185.00
2024-02-29T06:44:17.879Z,1371.00
2024-02-29T06:45:18.030Z,1509.00
2024-02-29T06:46:17.889Z,1513.00
2024-02-29T06:47:17.900Z,1351.00
2024-02-29T06:48:17.879Z,1235.00
2024-02-29T06:49:17.966Z,1167.00
2024-02-29T06:50:17.856Z,1099.00
2024-02-29T06:51:17.861Z,1049.00
2024-02-29T06:52:17.894Z,1030.00
2024-02-29T06:53:18.065Z,1000.00
2024-02-29T06:54:17.860Z,982.00
2024-02-29T06:55:17.958Z,967.00
2024-02-29T06:56:17.859Z,955.00
2024-02-29T06:57:17.858Z,909.00
2024-02-29T06:58:17.883Z,895.00
2024-02-29T06:59:17.864Z,855.00
2024-02-29T07:00:17.861Z,844.00
2024-02-29T07:01:17.913Z,831.00
2024-02-29T07:02:17.869Z,967.00
2024-02-29T07:03:17.885Z,982.00
2024-02-29T07:04:17.957Z,985.00
2024-02-29T07:05:17.898Z,943.00
2024-02-29T07:06:17.866Z,947.00
2024-02-29T07:07:17.995Z,963.00
2024-02-29T07:08:17.896Z,1003.00
2024-02-29T07:09:17.889Z,1055.00
2024-02-29T07:10:18.031Z,1078.00
2024-02-29T07:11:17.903Z,1080.00
2024-02-29T07:12:17.897Z,1070.00
2024-02-29T07:13:17.985Z,1088.00
2024-02-29T07:14:17.885Z,1104.00
2024-02-29T07:15:17.935Z,1094.00
2024-02-29T07:16:17.918Z,1070.00
2024-02-29T07:17:17.894Z,1012.00
2024-02-29T07:18:17.957Z,973.00
2024-02-29T07:19:18.012Z,955.00
2024-02-29T07:20:17.892Z,954.00
2024-02-29T07:21:17.903Z,949.00
2024-02-29T07:22:17.966Z,926.00
2024-02-29T07:23:17.904Z,929.00
2024-02-29T07:24:17.895Z,912.00
2024-02-29T07:25:17.975Z,870.00
2024-02-29T07:26:17.898Z,859.00
2024-02-29T07:36:15.209Z,849.00
2024-02-29T07:36:52.712Z,889.00
2024-02-29T07:50:15.528Z,849.00
2024-02-29T07:50:52.506Z,897.00
2024-02-29T07:54:21.951Z,849.00
2024-02-29T07:54:59.136Z,890.00
2024-02-29T07:55:59.144Z,1058.00
2024-02-29T07:56:59.118Z,1281.00
2024-02-29T07:57:59.182Z,1533.00
2024-02-29T08:01:34.929Z,849.00
2024-02-29T08:02:07.969Z,870.00
2024-02-29T08:03:07.850Z,991.00
2024-02-29T08:04:07.862Z,1161.00
2024-02-29T08:05:07.895Z,1366.00
2024-02-29T08:06:07.846Z,1604.00
2024-02-29T08:07:07.838Z,1698.00
2024-02-29T08:08:07.839Z,1631.00
2024-02-29T08:09:10.378Z,1597.00
2024-02-29T08:10:08.075Z,1582.00
2024-02-29T08:11:07.835Z,1540.00
2024-02-29T08:12:07.876Z,1489.00
2024-02-29T08:13:07.911Z,1445.00
2024-02-29T08:14:07.846Z,1405.00
2024-02-29T08:15:07.853Z,1344.00
2024-02-29T08:16:07.939Z,1288.00
2024-02-29T08:17:07.870Z,1287.00
2024-02-29T08:18:34.563Z,1284.00
2024-02-29T08:22:47.910Z,1284.00
2024-02-29T08:23:20.903Z,1300.00
2024-02-29T08:24:20.895Z,1391.00
2024-02-29T08:25:21.076Z,1495.00
2024-02-29T08:26:20.884Z,1573.00
2024-02-29T08:27:20.920Z,1622.00
2024-02-29T08:28:20.957Z,1617.00
2024-02-29T08:29:20.897Z,1567.00
2024-02-29T08:34:00.383Z,1513.00
2024-02-29T08:34:36.171Z,1531.00
2024-02-29T08:36:01.241Z,1600.00
2024-02-29T08:36:36.190Z,1524.00
2024-02-29T08:40:19.899Z,1513.00
2024-02-29T08:42:27.957Z,1513.00
2024-02-29T08:43:22.895Z,1530.00
2024-02-29T08:44:00.140Z,1533.00
2024-02-29T08:45:00.185Z,1601.00
2024-02-29T08:46:00.212Z,1660.00
2024-02-29T08:54:54.422Z,1513.00
2024-02-29T08:55:30.651Z,1543.00
2024-02-29T08:56:30.584Z,1661.00
2024-02-29T08:57:30.662Z,1783.00
2024-02-29T08:58:30.624Z,1860.00
2024-02-29T08:59:30.586Z,1915.00
2024-02-29T09:00:30.585Z,1821.00
2024-02-29T09:01:30.656Z,1715.00
2024-02-29T09:02:30.597Z,1628.00
2024-02-29T09:03:30.642Z,1575.00
2024-02-29T09:04:30.598Z,1538.00
2024-02-29T09:05:30.581Z,1498.00
2024-02-29T09:06:36.236Z,1463.00
2024-02-29T09:07:31.668Z,1463.00
2024-02-29T09:08:30.586Z,1445.00
2024-02-29T09:20:41.889Z,1463.00
2024-02-29T09:21:14.754Z,1489.00
2024-02-29T09:22:14.847Z,1612.00
2024-02-29T09:23:14.752Z,1732.00
2024-02-29T09:24:16.093Z,1791.00
2024-02-29T09:25:14.848Z,1813.00
2024-02-29T09:26:14.873Z,1734.00
2024-02-29T09:27:14.750Z,1606.00
2024-02-29T09:28:14.905Z,1517.00
2024-02-29T09:29:14.800Z,1468.00
2024-02-29T09:30:14.766Z,1396.00
2024-02-29T09:31:14.874Z,1319.00
2024-02-29T09:32:14.760Z,1279.00
2024-02-29T09:33:14.803Z,1198.00
2024-02-29T09:34:14.788Z,1135.00
2024-02-29T09:35:14.778Z,1106.00
2024-02-29T09:36:14.823Z,1070.00
2024-02-29T09:37:14.819Z,1059.00
2024-02-29T09:38:14.780Z,1066.00
2024-02-29T09:39:14.786Z,1023.00
2024-02-29T09:40:14.824Z,1021.00
2024-02-29T09:42:15.561Z,988.00
2024-02-29T09:43:14.852Z,990.00
2024-02-29T09:44:14.773Z,951.00
2024-02-29T09:45:24.351Z,600.00
2024-02-29T09:46:22.754Z,600.00
2024-02-29T09:47:22.708Z,600.00
2024-02-29T09:48:22.753Z,600.00
2024-02-29T09:49:22.816Z,600.00
2024-02-29T09:50:22.850Z,600.00
2024-02-29T09:51:22.922Z,581.00
2024-02-29T09:52:22.978Z,582.00
2024-02-29T09:53:22.990Z,584.00
2024-02-29T09:54:23.073Z,600.00
2024-02-29T09:55:23.130Z,616.00
2024-02-29T09:56:23.146Z,606.00
2024-02-29T09:57:23.178Z,602.00
2024-02-29T09:58:23.249Z,608.00
2024-02-29T09:59:23.190Z,602.00
2024-02-29T10:00:23.232Z,609.00
2024-02-29T10:01:23.632Z,600.00
2024-02-29T10:02:23.301Z,605.00
2024-02-29T10:03:23.359Z,641.00
2024-02-29T10:04:23.467Z,636.00
2024-02-29T10:05:23.469Z,636.00
2024-02-29T10:06:23.468Z,628.00
2024-02-29T10:07:23.779Z,612.00
2024-02-29T10:08:23.511Z,623.00
2024-02-29T10:09:23.550Z,601.00
2024-02-29T10:10:23.856Z,617.00
2024-02-29T10:11:23.675Z,691.00
2024-02-29T10:12:23.657Z,710.00
2024-02-29T10:13:23.788Z,771.00
2024-02-29T10:14:23.796Z,722.00
2024-02-29T10:15:23.817Z,695.00
2024-02-29T10:16:24.989Z,734.00
2024-02-29T10:17:23.885Z,722.00
2024-02-29T10:18:23.875Z,1010.00
2024-02-29T10:19:24.042Z,956.00
2024-02-29T10:20:23.904Z,875.00
2024-02-29T10:21:23.872Z,797.00
2024-02-29T10:23:23.879Z,747.00
2024-02-29T10:24:24.329Z,788.00
2024-02-29T10:25:23.915Z,772.00
2024-02-29T10:26:23.877Z,762.00
2024-02-29T10:27:23.881Z,757.00
2024-02-29T10:28:23.916Z,769.00
2024-02-29T10:29:25.085Z,765.00
2024-02-29T10:30:23.893Z,732.00
2024-02-29T10:31:23.980Z,750.00
2024-02-29T10:32:23.915Z,734.00
2024-02-29T10:33:23.917Z,746.00
2024-02-29T10:34:24.059Z,748.00
2024-02-29T10:35:23.929Z,747.00
2024-02-29T10:36:23.924Z,707.00
2024-02-29T10:37:23.928Z,654.00
2024-02-29T10:38:24.282Z,651.00
2024-02-29T10:39:23.901Z,644.00
2024-02-29T10:40:23.998Z,650.00
2024-02-29T10:41:23.910Z,646.00
2024-02-29T10:42:23.986Z,646.00
2024-02-29T10:43:23.970Z,641.00
2024-02-29T10:44:23.908Z,645.00
2024-02-29T10:45:26.706Z,646.00
2024-02-29T10:46:23.951Z,647.00
2024-02-29T10:47:23.949Z,650.00
2024-02-29T10:48:23.916Z,657.00
2024-02-29T10:49:23.943Z,667.00
2024-02-29T10:50:23.928Z,684.00
2024-02-29T10:51:27.168Z,696.00
2024-02-29T10:52:24.012Z,697.00
2024-02-29T10:53:23.917Z,696.00
2024-02-29T10:54:23.956Z,690.00
2024-02-29T10:55:24.060Z,704.00
2024-02-29T10:56:23.939Z,704.00
2024-02-29T10:57:23.912Z,666.00
2024-02-29T10:58:23.982Z,701.00
2024-02-29T10:59:23.942Z,695.00
2024-02-29T11:00:23.928Z,698.00
2024-02-29T11:01:24.128Z,723.00
2024-02-29T11:02:23.920Z,672.00
2024-02-29T11:03:23.941Z,671.00
2024-02-29T11:04:24.093Z,663.00
2024-02-29T11:05:23.964Z,645.00
2024-02-29T11:06:23.920Z,642.00
2024-02-29T11:07:24.009Z,656.00
2024-02-29T11:08:23.963Z,649.00
2024-02-29T11:09:27.304Z,625.00
2024-02-29T11:10:24.020Z,613.00
2024-02-29T11:11:24.004Z,597.00
2024-02-29T11:12:23.927Z,592.00
2024-02-29T11:13:23.973Z,599.00
2024-02-29T11:18:02.165Z,625.00
2024-02-29T11:19:03.577Z,631.00
2024-02-29T11:19:43.230Z,631.00
2024-02-29T11:20:38.252Z,634.00
2024-02-29T11:27:48.633Z,625.00
2024-02-29T11:28:21.600Z,633.00
2024-02-29T11:29:21.464Z,684.00
2024-02-29T11:30:21.437Z,786.00
2024-02-29T11:31:21.552Z,863.00
2024-02-29T11:32:21.467Z,894.00
2024-02-29T11:33:21.552Z,803.00
2024-02-29T11:34:21.512Z,745.00
2024-02-29T11:35:21.491Z,771.00
2024-02-29T11:36:21.533Z,658.00
2024-02-29T11:37:23.347Z,655.00
2024-02-29T11:38:28.761Z,648.00
2024-02-29T11:39:22.464Z,636.00
2024-02-29T11:40:21.717Z,621.00
2024-02-29T11:41:21.586Z,611.00
2024-02-29T11:42:21.484Z,637.00
2024-02-29T11:43:23.577Z,616.00
2024-02-29T11:44:21.497Z,615.00
2024-02-29T11:45:21.518Z,622.00
2024-02-29T11:46:21.587Z,609.00
2024-02-29T11:47:21.485Z,606.00
2024-02-29T11:48:21.472Z,620.00
2024-02-29T11:49:21.523Z,624.00
2024-02-29T11:57:29.376Z,616.00
2024-02-29T12:04:55.744Z,616.00
2024-02-29T12:11:36.212Z,616.00
2024-02-29T12:12:12.117Z,629.00
2024-02-29T12:13:13.163Z,746.00
2024-02-29T12:14:12.284Z,976.00
2024-02-29T12:15:12.215Z,1168.00
2024-02-29T12:25:24.360Z,616.00
2024-02-29T12:30:57.795Z,616.00
2024-02-29T12:31:33.416Z,628.00
2024-02-29T12:36:09.048Z,616.00
2024-02-29T12:36:46.473Z,629.00
2024-02-29T12:37:46.505Z,710.00
2024-02-29T12:38:46.469Z,890.00
2024-02-29T12:39:47.274Z,1051.00
2024-02-29T12:40:46.591Z,1219.00
2024-02-29T12:41:46.501Z,1180.00
2024-02-29T12:42:46.512Z,1070.00
2024-02-29T12:43:46.472Z,1006.00
2024-02-29T12:44:46.511Z,969.00
2024-02-29T12:45:46.521Z,916.00
2024-02-29T12:46:46.512Z,830.00
2024-02-29T12:47:46.616Z,851.00
2024-02-29T12:48:46.521Z,752.00
2024-02-29T12:49:46.573Z,688.00
2024-02-29T12:50:46.480Z,650.00
2024-02-29T12:51:46.537Z,634.00
2024-02-29T12:52:46.488Z,624.00
2024-02-29T12:53:46.502Z,620.00
2024-02-29T12:54:46.532Z,626.00
2024-02-29T12:55:46.505Z,625.00
2024-02-29T12:56:46.577Z,622.00
2024-02-29T12:57:46.574Z,626.00
2024-02-29T12:58:46.492Z,623.00
2024-02-29T12:59:46.496Z,606.00
2024-02-29T13:00:46.563Z,601.00
2024-02-29T13:01:46.606Z,601.00
2024-02-29T13:02:46.568Z,601.00
2024-02-29T13:03:46.661Z,599.00
2024-02-29T13:04:46.732Z,614.00
2024-02-29T13:05:46.721Z,600.00
2024-02-29T13:06:46.798Z,605.00
2024-02-29T13:07:46.847Z,616.00
2024-02-29T13:08:47.512Z,628.00
2024-02-29T13:09:46.906Z,623.00
2024-02-29T13:10:46.921Z,636.00
2024-02-29T13:11:47.031Z,615.00
2024-02-29T13:12:51.899Z,614.00
2024-02-29T13:13:48.053Z,614.00
2024-02-29T13:14:47.036Z,601.00
2024-02-29T13:15:47.107Z,598.00
2024-02-29T13:16:47.020Z,612.00
2024-02-29T13:17:47.054Z,597.00
2024-02-29T13:18:47.033Z,605.00
2024-02-29T13:19:47.028Z,600.00
2024-02-29T13:20:47.021Z,608.00
2024-02-29T13:21:47.048Z,600.00
2024-02-29T13:22:47.026Z,600.00
2024-02-29T13:23:47.022Z,619.00
2024-02-29T13:24:47.152Z,604.00
2024-02-29T13:25:47.174Z,600.00
2024-02-29T13:26:47.123Z,600.00
2024-02-29T13:27:47.176Z,609.00
2024-02-29T13:28:47.291Z,626.00
2024-02-29T13:29:47.261Z,645.00
2024-02-29T13:30:47.333Z,639.00
2024-02-29T13:31:47.385Z,624.00
2024-02-29T13:32:47.397Z,623.00
2024-02-29T13:33:47.450Z,608.00
2024-02-29T13:34:47.480Z,603.00
2024-02-29T13:35:47.541Z,627.00
2024-02-29T13:36:47.611Z,627.00
2024-02-29T13:37:47.667Z,627.00
2024-02-29T13:38:47.691Z,603.00
2024-02-29T13:39:47.780Z,609.00
2024-02-29T13:40:47.755Z,628.00
2024-02-29T13:41:47.792Z,630.00
2024-02-29T13:42:47.858Z,633.00
2024-02-29T13:43:47.855Z,641.00
2024-02-29T13:44:48.014Z,606.00
2024-02-29T13:45:48.032Z,584.00
2024-02-29T13:46:48.041Z,600.00
2024-02-29T13:47:48.043Z,607.00
2024-02-29T13:48:48.101Z,638.00
2024-02-29T13:49:48.108Z,664.00
2024-02-29T13:50:48.119Z,650.00
2024-02-29T13:51:48.214Z,642.00
2024-02-29T13:52:48.198Z,599.00
2024-02-29T13:53:48.288Z,600.00
2024-02-29T13:54:48.456Z,617.00
2024-02-29T13:55:48.715Z,659.00
2024-02-29T13:56:48.476Z,643.00
2024-02-29T13:57:48.460Z,684.00
2024-02-29T13:58:48.468Z,659.00
2024-02-29T13:59:48.469Z,657.00
2024-02-29T14:00:48.685Z,649.00
2024-02-29T14:01:48.728Z,667.00
2024-02-29T14:02:48.604Z,678.00
2024-02-29T14:03:48.700Z,663.00
2024-02-29T14:04:48.768Z,703.00
2024-02-29T14:05:53.810Z,658.00
2024-02-29T14:06:48.998Z,656.00
2024-02-29T14:07:49.418Z,656.00
2024-02-29T14:08:48.823Z,658.00
2024-02-29T14:09:48.970Z,665.00
2024-02-29T14:10:48.907Z,668.00
2024-02-29T14:11:48.936Z,723.00
2024-02-29T14:12:49.188Z,767.00
2024-02-29T14:13:49.048Z,736.00
2024-02-29T14:14:49.117Z,733.00
2024-02-29T14:15:49.212Z,807.00
2024-02-29T14:16:49.346Z,754.00
2024-02-29T14:17:56.619Z,600.00
2024-02-29T14:18:58.215Z,600.00
2024-02-29T14:19:56.573Z,600.00
2024-02-29T14:20:56.581Z,600.00
2024-02-29T14:21:56.584Z,600.00
2024-02-29T14:22:56.589Z,606.00
2024-02-29T14:23:56.581Z,606.00
2024-02-29T14:24:56.615Z,608.00
2024-02-29T14:25:56.584Z,601.00
2024-02-29T14:26:56.598Z,604.00
2024-02-29T14:27:56.600Z,592.00
2024-02-29T14:28:56.599Z,615.00
2024-02-29T14:29:56.588Z,629.00
2024-02-29T14:30:56.633Z,631.00
2024-02-29T14:31:56.637Z,637.00
2024-02-29T14:32:56.620Z,630.00
2024-02-29T14:33:56.613Z,629.00
2024-02-29T14:34:56.797Z,650.00
2024-02-29T14:35:56.691Z,652.00
2024-02-29T14:36:56.747Z,627.00
2024-02-29T14:37:56.681Z,627.00
2024-02-29T14:38:56.633Z,626.00
2024-02-29T14:39:56.735Z,636.00
2024-02-29T14:40:56.667Z,632.00
2024-02-29T14:41:56.724Z,604.00
2024-02-29T14:42:56.803Z,610.00
2024-02-29T14:43:56.856Z,600.00
2024-02-29T14:44:56.872Z,608.00
2024-02-29T14:45:56.926Z,673.00
2024-02-29T14:46:56.952Z,659.00
2024-02-29T14:47:57.098Z,669.00
2024-02-29T14:48:57.042Z,693.00
2024-02-29T14:49:57.072Z,662.00
2024-02-29T14:50:57.225Z,654.00
2024-02-29T14:51:57.235Z,654.00
2024-02-29T14:52:57.203Z,677.00
2024-02-29T14:53:57.271Z,700.00
2024-02-29T14:54:57.389Z,755.00
2024-02-29T14:55:57.381Z,768.00
2024-02-29T14:56:57.400Z,833.00
2024-02-29T14:57:57.446Z,874.00
2024-02-29T14:58:57.473Z,909.00
2024-02-29T14:59:57.496Z,968.00
2024-02-29T15:00:57.673Z,1024.00
2024-02-29T15:01:58.764Z,1034.00
2024-02-29T15:02:57.589Z,1004.00
2024-02-29T15:03:57.732Z,905.00
2024-02-29T15:04:57.666Z,875.00
2024-02-29T15:05:57.654Z,882.00
2024-02-29T15:06:58.705Z,843.00
2024-02-29T15:07:57.725Z,800.00
2024-02-29T15:08:57.741Z,801.00
2024-02-29T15:09:57.812Z,807.00
2024-02-29T15:10:57.835Z,808.00
2024-02-29T15:11:57.858Z,828.00
2024-02-29T15:12:58.101Z,896.00
2024-02-29T15:13:57.976Z,860.00
2024-02-29T15:14:57.978Z,879.00
2024-02-29T15:15:58.042Z,893.00
2024-02-29T15:16:58.050Z,910.00
2024-02-29T15:17:58.130Z,884.00
2024-02-29T15:18:58.245Z,878.00
2024-02-29T15:19:58.192Z,880.00
2024-02-29T15:20:58.263Z,860.00
2024-02-29T15:21:58.341Z,888.00
2024-02-29T15:22:58.332Z,865.00
2024-02-29T15:23:58.464Z,871.00
2024-02-29T15:24:58.587Z,882.00
2024-02-29T15:25:58.585Z,904.00
2024-02-29T15:26:58.525Z,881.00
2024-02-29T15:27:58.585Z,846.00
2024-02-29T15:28:58.657Z,756.00
2024-02-29T15:29:58.665Z,768.00
2024-02-29T15:30:58.727Z,720.00
2024-02-29T15:31:58.757Z,665.00
2024-02-29T15:32:58.824Z,718.00
2024-02-29T15:33:58.923Z,795.00
2024-02-29T15:34:58.855Z,855.00
2024-02-29T15:35:58.927Z,838.00
2024-02-29T15:36:58.954Z,819.00
2024-02-29T15:37:58.960Z,804.00
2024-02-29T15:38:58.987Z,847.00
2024-02-29T15:39:59.089Z,885.00
2024-02-29T15:40:59.082Z,858.00
2024-02-29T15:41:59.106Z,846.00
2024-02-29T15:42:59.155Z,822.00
2024-02-29T15:43:59.173Z,857.00
2024-02-29T15:44:59.235Z,866.00
2024-02-29T15:45:59.451Z,851.00
2024-02-29T15:46:59.327Z,838.00
2024-02-29T15:47:59.420Z,846.00
2024-02-29T15:48:59.425Z,865.00
2024-02-29T15:49:59.441Z,822.00
2024-02-29T15:50:59.485Z,846.00
2024-02-29T15:51:59.648Z,843.00
2024-02-29T15:52:59.555Z,819.00
2024-02-29T15:53:59.572Z,820.00
2024-02-29T15:54:59.652Z,856.00
2024-02-29T15:56:02.512Z,862.00
2024-02-29T15:56:59.647Z,864.00
2024-02-29T15:57:59.808Z,868.00
2024-02-29T15:58:59.644Z,871.00
2024-02-29T15:59:59.653Z,887.00
2024-02-29T16:00:59.674Z,898.00
2024-02-29T16:01:59.673Z,910.00
2024-02-29T16:02:59.651Z,942.00
2024-02-29T16:03:59.687Z,934.00
2024-02-29T16:04:59.704Z,975.00
2024-02-29T16:05:59.671Z,991.00
2024-02-29T16:06:59.832Z,975.00
2024-02-29T16:07:59.746Z,956.00
2024-02-29T16:08:59.655Z,959.00
2024-02-29T16:09:59.795Z,951.00
2024-02-29T16:10:59.648Z,958.00
2024-02-29T16:11:59.729Z,960.00
2024-02-29T16:12:59.703Z,952.00
2024-02-29T16:13:59.663Z,968.00
2024-02-29T16:14:59.655Z,964.00
2024-02-29T16:15:59.693Z,966.00
2024-02-29T16:16:59.784Z,988.00
2024-02-29T16:17:59.700Z,1023.00
2024-02-29T16:18:59.698Z,1020.00
2024-02-29T16:19:59.666Z,1029.00
2024-02-29T16:20:59.787Z,1026.00
2024-02-29T16:21:59.705Z,1084.00
2024-02-29T16:22:59.742Z,1108.00
2024-02-29T16:23:59.764Z,1152.00
2024-02-29T16:24:59.738Z,1186.00
2024-02-29T16:25:59.697Z,1161.00
2024-02-29T16:26:59.687Z,1128.00
2024-02-29T16:27:59.713Z,1133.00
2024-02-29T16:28:59.668Z,1145.00
2024-02-29T16:29:59.669Z,1164.00
2024-02-29T16:31:00.755Z,1168.00
2024-02-29T16:31:59.660Z,1165.00
2024-02-29T16:32:59.725Z,1166.00
2024-02-29T16:33:59.735Z,1161.00
2024-02-29T16:34:59.737Z,1176.00
2024-02-29T16:35:59.797Z,1085.00
2024-02-29T16:36:59.862Z,1103.00